createdAt,value
2023-12-22T00:00:17.200Z,94.96
2023-12-22T00:02:44.290Z,95.03
2023-12-22T00:05:11.863Z,95.18
2023-12-22T00:07:38.908Z,94.90
2023-12-22T00:10:06.352Z,94.72
2023-12-22T00:12:33.270Z,94.91
2023-12-22T00:15:00.330Z,95.58
2023-12-22T00:17:27.313Z,95.32
2023-12-22T00:19:54.356Z,94.87
2023-12-22T00:22:21.264Z,94.93
2023-12-22T00:24:48.435Z,94.81
2023-12-22T00:27:15.345Z,94.35
2023-12-22T00:29:42.254Z,93.84
2023-12-22T00:32:10.936Z,94.46
2023-12-22T00:34:38.088Z,94.58
2023-12-22T00:37:05.892Z,94.75
2023-12-22T00:39:33.527Z,94.98
2023-12-22T00:42:00.650Z,95.24
2023-12-22T00:44:28.785Z,95.64
2023-12-22T00:46:56.947Z,95.81
2023-12-22T00:49:24.095Z,97.16
2023-12-22T00:51:51.177Z,98.59
2023-12-22T00:54:18.188Z,100.00
2023-12-22T00:56:45.327Z,100.00
2023-12-22T00:59:12.511Z,100.00
2023-12-22T01:01:39.659Z,100.00
2023-12-22T01:04:06.754Z,100.00
2023-12-22T01:06:39.234Z,100.00
2023-12-22T01:09:06.699Z,100.00
2023-12-22T01:11:33.890Z,100.00
2023-12-22T01:14:00.990Z,99.64
2023-12-22T01:16:28.483Z,100.00
2023-12-22T01:18:55.464Z,99.59
2023-12-22T01:21:22.511Z,99.62
2023-12-22T01:23:49.531Z,100.00
2023-12-22T01:26:16.571Z,100.00
2023-12-22T01:28:43.482Z,100.00
2023-12-22T01:31:10.329Z,100.00
2023-12-22T01:33:37.523Z,100.00
2023-12-22T01:36:05.106Z,100.00
2023-12-22T01:38:32.041Z,100.00
2023-12-22T01:40:59.199Z,100.00
2023-12-22T01:43:26.409Z,100.00
2023-12-22T01:45:58.129Z,100.00
2023-12-22T01:48:26.505Z,100.00
2023-12-22T01:50:56.130Z,100.00
2023-12-22T01:53:26.896Z,100.00
2023-12-22T01:55:56.566Z,100.00
2023-12-22T01:58:25.253Z,100.00
2023-12-22T02:00:54.993Z,100.00
2023-12-22T02:03:22.789Z,100.00
2023-12-22T02:05:50.888Z,100.00
2023-12-22T02:08:19.782Z,100.00
2023-12-22T02:10:46.807Z,100.00
2023-12-22T02:13:14.824Z,100.00
2023-12-22T02:15:41.986Z,100.00
2023-12-22T02:18:26.437Z,100.00
2023-12-22T02:20:54.754Z,100.00
2023-12-22T02:23:21.677Z,100.00
2023-12-22T02:25:58.544Z,99.88
2023-12-22T02:28:26.354Z,100.00
2023-12-22T02:31:05.391Z,100.00
2023-12-22T02:33:34.644Z,100.00
2023-12-22T02:36:05.799Z,99.50
2023-12-22T02:38:36.008Z,99.57
2023-12-22T02:41:03.740Z,100.00
2023-12-22T02:43:30.914Z,100.00
2023-12-22T02:45:57.880Z,99.77
2023-12-22T02:48:24.940Z,100.00
2023-12-22T02:50:52.096Z,100.00
2023-12-22T02:53:18.978Z,99.74
2023-12-22T02:55:45.909Z,99.96
2023-12-22T02:58:12.974Z,100.00
2023-12-22T03:00:41.325Z,99.88
2023-12-22T03:03:08.301Z,99.80
2023-12-22T03:05:35.750Z,99.76
2023-12-22T03:08:02.799Z,100.00
2023-12-22T03:10:31.101Z,100.00
2023-12-22T03:12:58.107Z,100.00
2023-12-22T03:15:25.146Z,99.51
2023-12-22T03:17:52.485Z,100.00
2023-12-22T03:20:19.517Z,99.78
2023-12-22T03:22:46.630Z,99.18
2023-12-22T03:25:13.659Z,99.88
2023-12-22T03:27:40.608Z,99.96
2023-12-22T03:30:08.476Z,100.00
2023-12-22T03:32:35.486Z,100.00
2023-12-22T03:35:02.472Z,100.00
2023-12-22T03:37:29.547Z,100.00
2023-12-22T03:39:56.482Z,99.73
2023-12-22T03:42:23.351Z,100.00
2023-12-22T03:44:50.250Z,100.00
2023-12-22T03:47:17.278Z,100.00
2023-12-22T03:49:44.308Z,100.00
2023-12-22T03:52:11.838Z,99.84
2023-12-22T03:54:38.773Z,98.66
2023-12-22T03:57:05.640Z,97.66
2023-12-22T03:59:32.635Z,97.54
2023-12-22T04:02:02.415Z,97.44
2023-12-22T04:04:29.596Z,97.69
2023-12-22T04:06:56.671Z,97.12
2023-12-22T04:09:23.740Z,96.49
2023-12-22T04:11:50.750Z,96.88
2023-12-22T04:14:19.324Z,97.08
2023-12-22T04:16:46.803Z,97.02
2023-12-22T04:19:13.800Z,96.98
2023-12-22T04:21:40.860Z,96.84
2023-12-22T04:24:07.852Z,97.01
2023-12-22T04:26:34.776Z,96.45
2023-12-22T04:29:01.760Z,97.61
2023-12-22T04:31:28.878Z,97.25
2023-12-22T04:33:56.981Z,96.88
2023-12-22T04:36:24.272Z,97.67
2023-12-22T04:38:51.160Z,97.59
2023-12-22T04:41:18.639Z,97.14
2023-12-22T04:43:45.636Z,97.72
2023-12-22T04:46:12.695Z,97.53
2023-12-22T04:48:39.847Z,96.61
2023-12-22T04:51:06.885Z,96.90
2023-12-22T04:53:33.930Z,96.35
2023-12-22T04:56:00.926Z,95.15
2023-12-22T04:58:27.923Z,94.98
2023-12-22T05:00:54.956Z,93.67
2023-12-22T05:03:21.857Z,93.13
2023-12-22T05:05:48.898Z,92.41
2023-12-22T05:08:17.562Z,91.07
2023-12-22T05:10:44.607Z,91.00
2023-12-22T05:13:11.579Z,89.94
2023-12-22T05:15:38.480Z,90.13
2023-12-22T05:18:06.053Z,89.70
2023-12-22T05:20:33.049Z,89.29
2023-12-22T05:23:00.277Z,87.94
2023-12-22T05:25:27.340Z,88.41
2023-12-22T05:27:54.355Z,87.52
2023-12-22T05:30:21.512Z,87.37
2023-12-22T05:32:48.419Z,87.27
2023-12-22T05:35:15.484Z,87.12
2023-12-22T05:37:42.525Z,86.92
2023-12-22T05:40:11.075Z,86.81
2023-12-22T05:42:38.210Z,86.90
2023-12-22T05:45:07.634Z,86.03
2023-12-22T05:47:34.783Z,86.22
2023-12-22T05:50:01.958Z,85.68
2023-12-22T05:52:29.358Z,86.43
2023-12-22T05:55:09.102Z,86.73
2023-12-22T05:57:36.792Z,85.84
2023-12-22T06:00:17.407Z,86.13
2023-12-22T06:02:45.344Z,86.32
2023-12-22T06:05:12.319Z,87.18
2023-12-22T06:07:39.289Z,86.31
2023-12-22T06:10:08.151Z,85.02
2023-12-22T06:12:35.185Z,84.78
2023-12-22T06:15:02.252Z,84.77
2023-12-22T06:17:29.138Z,85.04
2023-12-22T06:19:56.252Z,83.76
2023-12-22T06:22:24.278Z,83.74
2023-12-22T06:24:51.253Z,84.19
2023-12-22T06:27:18.204Z,83.17
2023-12-22T06:29:45.176Z,82.01
2023-12-22T06:32:13.208Z,82.84
2023-12-22T06:34:40.354Z,81.76
2023-12-22T06:37:09.183Z,81.84
2023-12-22T06:39:36.031Z,82.16
2023-12-22T06:42:03.013Z,81.91
2023-12-22T06:44:30.947Z,82.02
2023-12-22T06:46:57.857Z,81.88
2023-12-22T06:49:24.881Z,80.98
2023-12-22T06:51:51.840Z,81.96
2023-12-22T06:54:18.972Z,81.60
2023-12-22T06:56:46.963Z,82.46
2023-12-22T06:59:15.756Z,80.44
2023-12-22T07:01:52.082Z,79.97
2023-12-22T07:05:05.615Z,77.71
2023-12-22T07:07:33.626Z,76.44
2023-12-22T07:10:02.305Z,75.32
2023-12-22T07:12:29.248Z,73.40
2023-12-22T07:14:56.331Z,73.12
2023-12-22T07:17:23.341Z,71.77
2023-12-22T07:19:53.465Z,70.80
2023-12-22T07:22:20.720Z,69.53
2023-12-22T07:24:47.642Z,68.67
2023-12-22T07:27:14.569Z,69.05
2023-12-22T07:29:41.606Z,69.10
2023-12-22T07:32:08.594Z,68.79
2023-12-22T07:34:38.532Z,67.67
2023-12-22T07:37:10.200Z,67.41
2023-12-22T07:39:38.389Z,67.44
2023-12-22T07:42:05.813Z,67.46
2023-12-22T07:44:34.027Z,66.02
2023-12-22T07:47:03.305Z,64.98
2023-12-22T07:49:31.300Z,63.72
2023-12-22T07:51:59.504Z,62.32
2023-12-22T07:54:27.214Z,61.25
2023-12-22T07:56:54.327Z,60.72
2023-12-22T07:59:29.599Z,61.08
2023-12-22T08:01:58.467Z,58.70
2023-12-22T08:04:25.507Z,59.80
2023-12-22T08:06:53.532Z,59.10
2023-12-22T08:09:20.649Z,59.16
2023-12-22T08:11:48.835Z,58.27
2023-12-22T08:14:16.077Z,58.32
2023-12-22T08:16:44.784Z,55.55
2023-12-22T08:19:11.904Z,55.02
2023-12-22T08:21:46.073Z,54.51
2023-12-22T08:24:20.677Z,53.56
2023-12-22T08:26:51.434Z,52.61
2023-12-22T08:29:20.071Z,52.50
2023-12-22T08:31:47.753Z,52.27
2023-12-22T08:34:14.798Z,52.03
2023-12-22T08:36:42.024Z,53.36
2023-12-22T08:39:09.600Z,50.75
2023-12-22T08:41:38.486Z,51.58
2023-12-22T08:44:07.386Z,51.41
2023-12-22T08:46:35.620Z,51.73
2023-12-22T08:49:04.033Z,51.95
2023-12-22T08:51:31.338Z,53.91
2023-12-22T08:53:59.321Z,53.17
2023-12-22T08:56:27.558Z,52.33
2023-12-22T08:58:56.518Z,53.11
2023-12-22T09:01:24.089Z,52.25
2023-12-22T09:03:51.181Z,52.63
2023-12-22T09:06:23.854Z,53.96
2023-12-22T09:08:51.279Z,53.35
2023-12-22T09:11:20.895Z,54.37
2023-12-22T09:13:47.932Z,53.71
2023-12-22T09:16:17.550Z,53.89
2023-12-22T09:18:46.235Z,54.87
2023-12-22T09:21:13.515Z,54.08
2023-12-22T09:23:40.567Z,54.17
2023-12-22T09:26:07.521Z,54.07
2023-12-22T09:28:34.483Z,53.51
2023-12-22T09:31:01.363Z,53.67
2023-12-22T09:33:28.252Z,53.38
2023-12-22T09:35:55.459Z,51.19
2023-12-22T09:38:25.004Z,51.28
2023-12-22T09:40:54.345Z,51.16
2023-12-22T09:43:21.751Z,51.66
2023-12-22T09:45:50.679Z,51.08
2023-12-22T09:48:28.349Z,50.78
2023-12-22T09:50:56.864Z,51.59
2023-12-22T09:53:26.540Z,51.85
2023-12-22T09:55:55.712Z,51.83
2023-12-22T09:58:24.052Z,51.06
2023-12-22T10:00:52.441Z,52.43
2023-12-22T10:03:21.633Z,50.89
2023-12-22T10:05:48.874Z,52.66
2023-12-22T10:08:17.966Z,53.08
2023-12-22T10:10:48.626Z,52.97
2023-12-22T10:13:16.384Z,53.69
2023-12-22T10:15:46.594Z,53.32
2023-12-22T10:18:14.364Z,53.48
2023-12-22T10:20:41.562Z,53.21
2023-12-22T10:23:08.672Z,53.94
2023-12-22T10:25:35.719Z,54.67
2023-12-22T10:28:03.232Z,54.15
2023-12-22T10:30:30.334Z,53.83
2023-12-22T10:32:57.415Z,54.80
2023-12-22T10:35:24.750Z,54.70
2023-12-22T10:37:55.122Z,52.30
2023-12-22T10:40:23.819Z,52.19
2023-12-22T10:42:52.316Z,49.70
2023-12-22T10:45:20.099Z,47.62
2023-12-22T10:47:47.722Z,46.77
2023-12-22T10:50:15.479Z,47.82
2023-12-22T10:52:42.490Z,47.79
2023-12-22T10:55:09.953Z,48.37
2023-12-22T10:57:39.561Z,46.90
2023-12-22T11:00:12.254Z,45.66
2023-12-22T11:02:44.711Z,44.07
2023-12-22T11:05:13.737Z,42.46
2023-12-22T11:07:49.513Z,41.95
2023-12-22T11:10:21.792Z,41.50
2023-12-22T11:12:50.236Z,39.39
2023-12-22T11:15:20.788Z,38.67
2023-12-22T11:17:50.669Z,39.91
2023-12-22T11:20:19.609Z,39.29
2023-12-22T11:22:51.650Z,38.40
2023-12-22T11:25:22.305Z,39.02
2023-12-22T11:27:50.200Z,40.92
2023-12-22T11:30:18.212Z,40.85
2023-12-22T11:32:45.558Z,41.73
2023-12-22T11:35:12.858Z,41.39
2023-12-22T11:37:40.674Z,40.93
2023-12-22T11:40:08.760Z,41.13
2023-12-22T11:42:46.547Z,41.36
2023-12-22T11:45:17.257Z,40.40
2023-12-22T11:47:44.876Z,40.24
2023-12-22T11:50:13.505Z,39.92
2023-12-22T11:52:41.035Z,40.47
2023-12-22T11:55:08.743Z,40.54
2023-12-22T11:57:39.919Z,40.04
2023-12-22T12:00:09.147Z,40.46
2023-12-22T12:02:42.290Z,39.46
2023-12-22T12:05:12.723Z,39.94
2023-12-22T12:07:50.528Z,39.62
2023-12-22T12:10:32.898Z,40.13
2023-12-22T12:13:10.898Z,40.30
2023-12-22T12:15:39.352Z,40.40
2023-12-22T12:18:07.225Z,39.48
2023-12-22T12:20:35.247Z,39.44
2023-12-22T12:23:04.193Z,39.45
2023-12-22T12:25:36.806Z,39.56
2023-12-22T12:28:15.773Z,37.88
2023-12-22T12:30:44.142Z,37.53
2023-12-22T12:33:13.639Z,36.27
2023-12-22T12:35:47.387Z,35.87
2023-12-22T12:38:22.430Z,36.87
2023-12-22T12:40:54.801Z,35.05
2023-12-22T12:43:22.262Z,35.37
2023-12-22T12:45:49.521Z,35.75
2023-12-22T12:48:23.512Z,35.12
2023-12-22T12:50:51.733Z,35.51
2023-12-22T12:53:19.055Z,34.56
2023-12-22T12:55:46.898Z,34.74
2023-12-22T12:58:14.121Z,34.62
2023-12-22T13:00:41.366Z,35.04
2023-12-22T13:03:08.603Z,34.92
2023-12-22T13:05:37.576Z,35.51
2023-12-22T13:08:13.469Z,35.11
2023-12-22T13:10:42.747Z,35.88
2023-12-22T13:13:10.090Z,35.86
2023-12-22T13:15:42.471Z,36.90
2023-12-22T13:18:10.646Z,36.29
2023-12-22T13:20:38.185Z,37.37
2023-12-22T13:23:05.391Z,37.10
2023-12-22T13:25:42.457Z,37.43
2023-12-22T13:28:09.436Z,38.10
2023-12-22T13:30:45.357Z,38.83
2023-12-22T13:33:12.440Z,38.64
2023-12-22T13:35:42.798Z,38.16
2023-12-22T13:38:12.147Z,38.75
2023-12-22T13:40:40.776Z,39.28
2023-12-22T13:43:08.884Z,39.31
2023-12-22T13:45:36.932Z,39.07
2023-12-22T13:48:04.845Z,39.67
2023-12-22T13:50:31.908Z,39.75
2023-12-22T13:53:10.146Z,39.30
2023-12-22T13:55:38.846Z,39.38
2023-12-22T13:58:06.114Z,39.85
2023-12-22T14:00:33.531Z,40.83
2023-12-22T14:03:02.944Z,41.57
2023-12-22T14:05:32.945Z,42.16
2023-12-22T14:08:04.982Z,42.37
2023-12-22T14:10:32.477Z,43.12
2023-12-22T14:12:59.437Z,43.08
2023-12-22T14:15:37.228Z,43.52
2023-12-22T14:18:09.621Z,43.89
2023-12-22T14:20:36.714Z,43.64
2023-12-22T14:23:05.073Z,44.55
2023-12-22T14:25:33.276Z,45.62
2023-12-22T14:28:00.578Z,45.92
2023-12-22T14:30:27.910Z,47.04
2023-12-22T14:32:55.561Z,47.33
2023-12-22T14:35:22.619Z,47.00
2023-12-22T14:37:50.323Z,47.82
2023-12-22T14:40:18.042Z,48.21
2023-12-22T14:42:45.238Z,48.35
2023-12-22T14:45:12.241Z,48.41
2023-12-22T14:47:39.176Z,48.68
2023-12-22T14:50:07.450Z,49.39
2023-12-22T14:52:34.908Z,49.72
2023-12-22T14:55:02.280Z,49.60
2023-12-22T14:57:32.079Z,50.06
2023-12-22T14:59:59.112Z,50.47
2023-12-22T15:02:26.348Z,50.50
2023-12-22T15:04:54.460Z,49.95
2023-12-22T15:07:22.312Z,49.57
2023-12-22T15:09:49.928Z,49.03
2023-12-22T15:12:17.387Z,49.47
2023-12-22T15:14:46.481Z,49.14
2023-12-22T15:17:14.318Z,48.57
2023-12-22T15:19:45.823Z,48.28
2023-12-22T15:22:13.320Z,48.11
2023-12-22T15:24:44.633Z,48.14
2023-12-22T15:27:12.724Z,48.82
2023-12-22T15:29:39.862Z,49.01
2023-12-22T15:32:07.193Z,48.44
2023-12-22T15:34:34.260Z,48.53
2023-12-22T15:37:01.207Z,48.22
2023-12-22T15:39:28.055Z,49.07
2023-12-22T15:41:55.072Z,48.42
2023-12-22T15:44:22.164Z,48.96
2023-12-22T15:46:49.165Z,48.37
2023-12-22T15:49:16.118Z,49.41
2023-12-22T15:51:43.058Z,48.95
2023-12-22T15:54:10.068Z,48.78
2023-12-22T15:56:37.009Z,48.96
2023-12-22T15:59:04.037Z,48.18
2023-12-22T16:01:30.959Z,48.75
2023-12-22T16:03:58.022Z,48.88
2023-12-22T16:06:25.280Z,48.15
2023-12-22T16:08:52.497Z,48.50
2023-12-22T16:11:21.734Z,48.53
2023-12-22T16:13:48.739Z,48.70
2023-12-22T16:16:20.400Z,48.73
2023-12-22T16:18:48.295Z,49.11
2023-12-22T16:21:15.761Z,48.66
2023-12-22T16:23:42.734Z,49.08
2023-12-22T16:26:10.061Z,48.56
2023-12-22T16:28:37.479Z,49.68
2023-12-22T16:31:04.926Z,50.26
2023-12-22T16:33:32.165Z,50.14
2023-12-22T16:35:59.268Z,49.80
2023-12-22T16:38:26.186Z,49.57
2023-12-22T16:40:53.683Z,49.40
2023-12-22T16:43:20.882Z,50.56
2023-12-22T16:45:47.732Z,51.07
2023-12-22T16:48:14.690Z,50.80
2023-12-22T16:50:41.766Z,51.28
2023-12-22T16:53:08.762Z,52.09
2023-12-22T16:55:35.960Z,51.40
2023-12-22T16:58:02.978Z,50.64
2023-12-22T17:00:29.971Z,50.55
2023-12-22T17:02:57.416Z,50.31
2023-12-22T17:05:26.021Z,50.12
2023-12-22T17:07:53.900Z,50.13
2023-12-22T17:10:21.082Z,50.00
2023-12-22T17:12:48.383Z,50.03
2023-12-22T17:15:15.480Z,49.89
2023-12-22T17:17:42.607Z,49.86
2023-12-22T17:20:11.512Z,49.40
2023-12-22T17:22:38.817Z,49.03
2023-12-22T17:25:06.101Z,49.02
2023-12-22T17:27:32.973Z,49.14
2023-12-22T17:29:59.901Z,49.15
2023-12-22T17:32:27.262Z,48.94
2023-12-22T17:34:54.432Z,49.54
2023-12-22T17:37:21.284Z,49.18
2023-12-22T17:39:48.122Z,48.99
2023-12-22T17:42:15.162Z,48.63
2023-12-22T17:44:41.998Z,48.52
2023-12-22T17:47:09.102Z,48.73
2023-12-22T17:49:36.107Z,49.47
2023-12-22T17:52:03.661Z,49.28
2023-12-22T17:54:30.564Z,49.00
2023-12-22T17:57:01.683Z,48.17
2023-12-22T17:59:29.189Z,48.81
2023-12-22T18:01:56.601Z,48.76
2023-12-22T18:04:24.364Z,48.53
2023-12-22T18:06:51.275Z,48.30
2023-12-22T18:09:18.249Z,47.15
2023-12-22T18:11:46.620Z,48.23
2023-12-22T18:14:13.850Z,47.58
2023-12-22T18:16:44.009Z,46.92
2023-12-22T18:19:12.822Z,46.81
2023-12-22T18:21:40.636Z,47.22
2023-12-22T18:24:07.818Z,46.60
2023-12-22T18:26:34.804Z,46.89
2023-12-22T18:29:02.274Z,47.00
2023-12-22T18:31:29.699Z,46.78
2023-12-22T18:33:57.802Z,46.05
2023-12-22T18:36:25.264Z,45.76
2023-12-22T18:38:52.224Z,46.39
2023-12-22T18:41:19.365Z,46.08
2023-12-22T18:43:46.577Z,46.38
2023-12-22T18:46:13.685Z,46.07
2023-12-22T18:48:45.190Z,46.74
2023-12-22T18:51:16.126Z,45.87
2023-12-22T18:53:43.103Z,45.90
2023-12-22T18:56:11.388Z,45.77
2023-12-22T18:58:40.756Z,45.04
2023-12-22T19:01:15.002Z,45.91
2023-12-22T19:03:48.905Z,45.25
2023-12-22T19:06:16.327Z,45.57
2023-12-22T19:08:43.361Z,45.02
2023-12-22T19:11:12.665Z,45.02
2023-12-22T19:13:41.234Z,44.84
2023-12-22T19:16:08.629Z,45.08
2023-12-22T19:18:36.237Z,45.14
2023-12-22T19:21:04.275Z,44.93
2023-12-22T19:23:34.120Z,45.78
2023-12-22T19:26:04.858Z,45.78
2023-12-22T19:28:33.899Z,46.07
2023-12-22T19:31:00.887Z,46.08
2023-12-22T19:33:28.157Z,45.64
2023-12-22T19:35:55.295Z,45.56
2023-12-22T19:38:23.530Z,45.59
2023-12-22T19:40:53.632Z,45.33
2023-12-22T19:43:22.560Z,45.29
2023-12-22T19:45:49.488Z,45.44
2023-12-22T19:48:16.522Z,45.36
2023-12-22T19:50:46.038Z,45.16
2023-12-22T19:53:13.350Z,44.65
2023-12-22T19:55:40.524Z,45.13
2023-12-22T19:58:07.533Z,45.65
2023-12-22T20:00:34.619Z,45.88
2023-12-22T20:03:01.719Z,45.00
2023-12-22T20:05:42.088Z,45.47
2023-12-22T20:08:15.276Z,46.46
2023-12-22T20:10:42.341Z,45.30
2023-12-22T20:13:10.248Z,46.07
2023-12-22T20:15:37.477Z,45.95
2023-12-22T20:18:06.944Z,46.87
2023-12-22T20:20:43.941Z,46.51
2023-12-22T20:23:33.230Z,46.20
2023-12-22T20:26:14.501Z,46.90
2023-12-22T20:28:44.906Z,46.90
2023-12-22T20:31:12.188Z,46.25
2023-12-22T20:33:39.233Z,46.46
2023-12-22T20:36:06.841Z,46.80
2023-12-22T20:38:33.813Z,46.35
2023-12-22T20:41:01.024Z,46.80
2023-12-22T20:43:28.435Z,46.74
2023-12-22T20:45:55.420Z,46.75
2023-12-22T20:48:22.754Z,47.29
2023-12-22T20:50:50.033Z,46.85
2023-12-22T20:53:17.294Z,47.09
2023-12-22T20:55:45.911Z,46.74
2023-12-22T20:58:13.069Z,47.69
2023-12-22T21:00:40.050Z,47.69
2023-12-22T21:03:07.044Z,48.58
2023-12-22T21:05:34.405Z,48.94
2023-12-22T21:08:01.509Z,49.59
2023-12-22T21:10:28.709Z,49.02
2023-12-22T21:12:55.916Z,49.32
2023-12-22T21:15:23.089Z,49.97
2023-12-22T21:17:51.784Z,50.25
2023-12-22T21:20:21.443Z,50.48
2023-12-22T21:22:48.628Z,50.52
2023-12-22T21:25:16.900Z,50.24
2023-12-22T21:27:44.320Z,51.06
2023-12-22T21:30:13.405Z,51.65
2023-12-22T21:32:40.582Z,51.67
2023-12-22T21:35:07.908Z,51.09
2023-12-22T21:37:34.951Z,51.25
2023-12-22T21:40:02.152Z,51.07
2023-12-22T21:42:30.073Z,51.01
2023-12-22T21:44:57.372Z,50.12
2023-12-22T21:47:24.313Z,50.44
2023-12-22T21:49:51.250Z,49.71
2023-12-22T21:52:18.191Z,49.67
2023-12-22T21:54:45.845Z,49.96
2023-12-22T21:57:20.089Z,48.89
2023-12-22T21:59:49.116Z,48.63
2023-12-22T22:02:16.589Z,49.05
2023-12-22T22:04:43.604Z,48.58
2023-12-22T22:07:10.825Z,48.50
2023-12-22T22:09:37.766Z,47.30
2023-12-22T22:12:05.387Z,47.43
2023-12-22T22:14:32.301Z,47.60
2023-12-22T22:16:59.236Z,47.21
2023-12-22T22:19:26.299Z,47.25
2023-12-22T22:21:54.264Z,46.66
2023-12-22T22:24:21.410Z,46.46
2023-12-22T22:26:48.351Z,46.53
2023-12-22T22:29:16.520Z,45.97
2023-12-22T22:31:48.875Z,46.29
2023-12-22T22:34:15.822Z,45.48
2023-12-22T22:36:48.685Z,45.93
2023-12-22T22:39:22.445Z,45.22
2023-12-22T22:41:54.109Z,45.51
2023-12-22T22:44:22.952Z,44.34
2023-12-22T22:46:53.221Z,44.94
2023-12-22T22:49:21.522Z,44.78
2023-12-22T22:51:48.443Z,44.55
2023-12-22T22:54:15.416Z,44.98
2023-12-22T22:56:43.385Z,44.26
2023-12-22T22:59:10.738Z,44.54
2023-12-22T23:01:38.133Z,45.08
2023-12-22T23:04:05.326Z,45.54
2023-12-22T23:06:32.485Z,45.39
2023-12-22T23:09:03.668Z,45.45
2023-12-22T23:11:30.895Z,46.10
2023-12-22T23:13:58.091Z,45.74
2023-12-22T23:16:25.230Z,46.03
2023-12-22T23:18:53.620Z,46.33
2023-12-22T23:21:20.724Z,46.34
2023-12-22T23:23:47.583Z,47.18
2023-12-22T23:26:14.973Z,47.65
2023-12-22T23:28:42.049Z,47.45
2023-12-22T23:31:09.123Z,48.46
2023-12-22T23:33:36.900Z,48.72
2023-12-22T23:36:13.914Z,48.99
2023-12-22T23:38:49.346Z,49.33
2023-12-22T23:41:16.535Z,49.85
2023-12-22T23:43:43.726Z,50.41
2023-12-22T23:46:10.780Z,50.02
2023-12-22T23:48:40.084Z,50.50
2023-12-22T23:51:08.680Z,50.99
2023-12-22T23:53:35.774Z,51.05
2023-12-22T23:56:02.700Z,50.76
2023-12-22T23:58:29.647Z,51.33
